createdAt,value
2023-05-08T00:00:42.029Z,90.90
2023-05-08T00:03:09.899Z,91.00
2023-05-08T00:05:39.123Z,91.30
2023-05-08T00:08:06.880Z,91.40
2023-05-08T00:10:34.810Z,91.30
2023-05-08T00:13:02.729Z,91.10
2023-05-08T00:15:30.573Z,91.00
2023-05-08T00:17:58.640Z,90.90
2023-05-08T00:20:26.578Z,90.80
2023-05-08T00:22:56.714Z,90.70
2023-05-08T00:25:24.638Z,90.80
2023-05-08T00:27:52.477Z,90.80
2023-05-08T00:30:20.567Z,90.80
2023-05-08T00:32:48.696Z,90.90
2023-05-08T00:35:16.681Z,90.90
2023-05-08T00:37:44.644Z,90.90
2023-05-08T00:40:14.747Z,90.90
2023-05-08T00:42:42.724Z,91.00
2023-05-08T00:45:11.505Z,90.90
2023-05-08T00:47:39.758Z,91.00
2023-05-08T00:50:08.594Z,91.10
2023-05-08T00:52:36.459Z,91.10
2023-05-08T00:55:06.333Z,91.00
2023-05-08T00:57:36.380Z,91.00
2023-05-08T01:00:05.907Z,91.10
2023-05-08T01:02:34.897Z,91.00
2023-05-08T01:05:03.960Z,91.00
2023-05-08T01:07:31.863Z,91.00
2023-05-08T01:09:59.700Z,91.10
2023-05-08T01:12:35.806Z,91.10
2023-05-08T01:15:12.527Z,91.20
2023-05-08T01:17:51.201Z,91.20
2023-05-08T01:20:31.081Z,91.20
2023-05-08T01:23:18.968Z,91.10
2023-05-08T01:26:44.048Z,91.10
2023-05-08T01:29:49.902Z,91.20
2023-05-08T01:32:21.547Z,91.70
2023-05-08T01:34:58.819Z,91.30
2023-05-08T01:37:33.623Z,91.30
2023-05-08T01:40:11.128Z,91.10
2023-05-08T01:42:50.172Z,91.00
2023-05-08T01:45:21.866Z,91.00
2023-05-08T01:48:02.056Z,91.00
2023-05-08T01:50:35.175Z,91.00
2023-05-08T01:53:10.649Z,90.90
2023-05-08T01:55:40.144Z,90.90
2023-05-08T01:58:10.608Z,90.90
2023-05-08T02:00:41.596Z,90.80
2023-05-08T02:03:13.889Z,90.70
2023-05-08T02:05:42.486Z,90.70
2023-05-08T02:08:12.868Z,90.70
2023-05-08T02:10:42.280Z,90.60
2023-05-08T02:13:12.669Z,90.60
2023-05-08T02:15:42.977Z,90.70
2023-05-08T02:18:14.103Z,90.70
2023-05-08T02:20:42.562Z,90.60
2023-05-08T02:23:11.485Z,90.60
2023-05-08T02:25:40.088Z,90.70
2023-05-08T02:28:08.502Z,90.60
2023-05-08T02:30:37.042Z,91.00
2023-05-08T02:33:06.801Z,90.70
2023-05-08T02:35:37.077Z,90.80
2023-05-08T02:38:10.565Z,90.90
2023-05-08T02:40:42.646Z,90.90
2023-05-08T02:43:10.569Z,91.10
2023-05-08T02:45:44.689Z,90.80
2023-05-08T02:48:18.084Z,90.90
2023-05-08T02:50:56.789Z,91.00
2023-05-08T02:53:32.658Z,91.10
2023-05-08T02:56:09.052Z,91.10
2023-05-08T02:58:43.716Z,91.10
2023-05-08T03:01:19.347Z,91.20
2023-05-08T03:03:53.828Z,91.20
2023-05-08T03:06:25.238Z,91.30
2023-05-08T03:08:58.309Z,91.30
2023-05-08T03:11:39.828Z,91.30
2023-05-08T03:14:11.594Z,91.20
2023-05-08T03:16:42.735Z,91.20
2023-05-08T03:19:16.988Z,91.30
2023-05-08T03:21:48.500Z,91.30
2023-05-08T03:24:18.985Z,91.20
2023-05-08T03:26:47.557Z,91.20
2023-05-08T03:29:17.635Z,91.30
2023-05-08T03:31:46.164Z,91.20
2023-05-08T03:34:15.572Z,91.30
2023-05-08T03:36:43.874Z,91.40
2023-05-08T03:39:13.562Z,91.30
2023-05-08T03:41:41.453Z,91.20
2023-05-08T03:44:10.209Z,91.20
2023-05-08T03:46:39.817Z,91.20
2023-05-08T03:49:09.924Z,91.30
2023-05-08T03:51:40.349Z,91.30
2023-05-08T03:54:08.287Z,91.20
2023-05-08T03:56:37.661Z,91.20
2023-05-08T03:59:14.759Z,91.20
2023-05-08T04:01:53.197Z,91.20
2023-05-08T04:04:34.625Z,91.10
2023-05-08T04:07:08.801Z,91.20
2023-05-08T04:09:40.339Z,91.10
2023-05-08T04:12:17.106Z,91.00
2023-05-08T04:14:49.697Z,91.10
2023-05-08T04:17:26.228Z,91.00
2023-05-08T04:20:01.166Z,91.20
2023-05-08T04:22:30.462Z,91.20
2023-05-08T04:25:02.327Z,91.20
2023-05-08T04:27:32.281Z,91.20
2023-05-08T04:30:00.826Z,91.20
2023-05-08T04:32:29.333Z,91.20
2023-05-08T04:34:57.340Z,91.10
2023-05-08T04:37:26.734Z,91.20
2023-05-08T04:39:54.785Z,91.20
2023-05-08T04:42:24.117Z,91.20
2023-05-08T04:44:53.532Z,91.10
2023-05-08T04:47:21.795Z,91.20
2023-05-08T04:49:49.766Z,91.10
2023-05-08T04:52:17.682Z,91.10
2023-05-08T04:54:45.964Z,91.20
2023-05-08T04:57:14.376Z,91.30
2023-05-08T04:59:42.206Z,91.40
2023-05-08T05:02:11.556Z,91.30
2023-05-08T05:04:39.389Z,91.70
2023-05-08T05:07:07.236Z,91.90
2023-05-08T05:09:36.988Z,91.80
2023-05-08T05:12:04.913Z,91.90
2023-05-08T05:14:33.095Z,91.90
2023-05-08T05:17:01.072Z,92.10
2023-05-08T05:19:30.460Z,92.10
2023-05-08T05:21:58.261Z,92.20
2023-05-08T05:24:26.193Z,92.10
2023-05-08T05:26:54.056Z,92.30
2023-05-08T05:29:21.860Z,92.30
2023-05-08T05:31:49.959Z,92.40
2023-05-08T05:34:17.964Z,92.50
2023-05-08T05:36:47.520Z,92.60
2023-05-08T05:39:15.540Z,92.50
2023-05-08T05:41:44.240Z,92.50
2023-05-08T05:44:12.192Z,92.50
2023-05-08T05:46:42.059Z,92.50
2023-05-08T05:49:11.758Z,92.70
2023-05-08T05:51:39.642Z,92.80
2023-05-08T05:54:08.839Z,92.80
2023-05-08T05:56:37.298Z,92.90
2023-05-08T05:59:05.618Z,92.90
2023-05-08T06:01:33.462Z,93.00
2023-05-08T06:04:01.398Z,93.00
2023-05-08T06:06:29.969Z,93.00
2023-05-08T06:08:57.726Z,93.10
2023-05-08T06:11:26.864Z,93.10
2023-05-08T06:13:54.888Z,93.20
2023-05-08T06:16:23.200Z,93.20
2023-05-08T06:18:51.158Z,93.20
2023-05-08T06:21:18.981Z,93.20
2023-05-08T06:23:46.864Z,93.30
2023-05-08T06:26:15.149Z,93.40
2023-05-08T06:28:44.533Z,93.40
2023-05-08T06:31:12.641Z,93.50
2023-05-08T06:33:40.603Z,93.40
2023-05-08T06:36:08.885Z,93.50
2023-05-08T06:38:36.981Z,93.50
2023-05-08T06:41:04.834Z,93.40
2023-05-08T06:43:32.939Z,93.50
2023-05-08T06:46:02.169Z,93.60
2023-05-08T06:48:30.068Z,93.50
2023-05-08T06:50:57.901Z,93.40
2023-05-08T06:53:25.733Z,93.40
2023-05-08T06:55:53.534Z,93.80
2023-05-08T06:58:21.633Z,93.80
2023-05-08T07:00:49.844Z,93.90
2023-05-08T07:03:19.173Z,94.00
2023-05-08T07:05:47.025Z,94.00
2023-05-08T07:08:15.057Z,93.90
2023-05-08T07:10:42.959Z,93.80
2023-05-08T07:13:10.735Z,93.80
2023-05-08T07:15:38.954Z,93.60
2023-05-08T07:18:07.244Z,93.50
2023-05-08T07:20:36.894Z,94.00
2023-05-08T07:23:04.674Z,93.60
2023-05-08T07:25:32.513Z,93.60
2023-05-08T07:28:01.439Z,93.50
2023-05-08T07:30:29.443Z,93.40
2023-05-08T07:32:58.816Z,93.40
2023-05-08T07:35:26.912Z,93.30
2023-05-08T07:37:57.569Z,93.30
2023-05-08T07:40:34.286Z,93.30
2023-05-08T07:43:02.196Z,93.10
2023-05-08T07:45:30.167Z,93.20
2023-05-08T07:47:59.336Z,93.20
2023-05-08T07:50:27.709Z,93.20
2023-05-08T07:52:56.921Z,93.20
2023-05-08T07:55:24.718Z,93.20
2023-05-08T07:57:52.658Z,93.30
2023-05-08T08:00:20.783Z,93.30
2023-05-08T08:02:49.054Z,93.30
2023-05-08T08:05:17.115Z,93.30
2023-05-08T08:07:45.208Z,93.30
2023-05-08T08:10:15.049Z,93.10
2023-05-08T08:12:43.009Z,92.90
2023-05-08T08:15:11.833Z,92.80
2023-05-08T08:17:39.782Z,92.60
2023-05-08T08:20:08.767Z,92.40
2023-05-08T08:22:39.075Z,92.40
2023-05-08T08:25:07.851Z,92.40
2023-05-08T08:27:37.214Z,92.20
2023-05-08T08:30:16.951Z,92.00
2023-05-08T08:32:46.743Z,92.10
2023-05-08T08:35:15.188Z,92.20
2023-05-08T08:37:44.465Z,92.20
2023-05-08T08:40:12.966Z,91.80
2023-05-08T08:42:44.537Z,91.80
2023-05-08T08:45:13.142Z,91.50
2023-05-08T08:47:43.416Z,92.00
2023-05-08T08:50:14.553Z,92.10
2023-05-08T08:52:49.009Z,91.90
2023-05-08T08:55:19.121Z,91.80
2023-05-08T08:58:01.484Z,91.80
2023-05-08T09:00:32.137Z,91.40
2023-05-08T09:03:00.458Z,91.20
2023-05-08T09:05:28.850Z,91.20
2023-05-08T09:07:57.495Z,91.00
2023-05-08T09:10:25.588Z,90.90
2023-05-08T09:12:56.644Z,90.80
2023-05-08T09:15:27.518Z,90.80
2023-05-08T09:17:55.375Z,90.70
2023-05-08T09:20:26.645Z,90.90
2023-05-08T09:22:55.572Z,90.90
2023-05-08T09:25:25.000Z,90.90
2023-05-08T09:27:54.350Z,90.80
2023-05-08T09:30:22.333Z,90.90
2023-05-08T09:32:50.970Z,90.90
2023-05-08T09:35:18.865Z,90.90
2023-05-08T09:37:47.761Z,91.10
2023-05-08T09:40:17.480Z,91.40
2023-05-08T09:42:46.195Z,91.40
2023-05-08T09:45:27.929Z,91.20
2023-05-08T09:47:55.882Z,91.10
2023-05-08T09:50:24.223Z,91.20
2023-05-08T09:52:52.141Z,91.30
2023-05-08T09:55:20.295Z,91.20
2023-05-08T09:57:56.302Z,91.00
2023-05-08T10:00:26.051Z,90.50
2023-05-08T10:02:59.199Z,90.60
2023-05-08T10:05:29.905Z,90.50
2023-05-08T10:07:58.654Z,90.40
2023-05-08T10:10:28.457Z,90.40
2023-05-08T10:12:57.946Z,90.50
2023-05-08T10:15:29.911Z,90.60
2023-05-08T10:18:04.277Z,89.60
2023-05-08T10:20:33.153Z,89.20
2023-05-08T10:23:02.071Z,88.90
2023-05-08T10:25:33.971Z,88.40
2023-05-08T10:28:11.732Z,87.90
2023-05-08T10:30:45.196Z,87.70
2023-05-08T10:33:18.309Z,87.20
2023-05-08T10:35:47.639Z,86.60
2023-05-08T10:38:17.497Z,86.70
2023-05-08T10:40:47.255Z,87.10
2023-05-08T10:43:16.907Z,86.80
2023-05-08T10:45:46.727Z,86.60
2023-05-08T10:48:25.344Z,86.30
2023-05-08T10:51:02.087Z,86.20
2023-05-08T10:53:39.751Z,85.40
2023-05-08T10:56:07.726Z,85.60
2023-05-08T10:58:39.162Z,86.40
2023-05-08T11:01:16.305Z,86.40
2023-05-08T11:03:46.521Z,85.90
2023-05-08T11:06:15.241Z,85.40
2023-05-08T11:08:51.845Z,86.30
2023-05-08T11:11:29.168Z,84.60
2023-05-08T11:14:15.251Z,85.50
2023-05-08T11:17:09.225Z,85.60
2023-05-08T11:19:38.314Z,85.10
2023-05-08T11:22:28.458Z,85.20
2023-05-08T11:24:59.486Z,85.00
2023-05-08T11:27:38.242Z,84.80
2023-05-08T11:30:24.613Z,84.60
2023-05-08T11:33:14.611Z,84.80
2023-05-08T11:35:44.390Z,85.40
2023-05-08T11:38:21.518Z,86.10
2023-05-08T11:40:55.590Z,86.10
2023-05-08T11:43:28.281Z,85.60
2023-05-08T11:46:00.824Z,85.10
2023-05-08T11:48:30.368Z,85.30
2023-05-08T11:50:58.294Z,85.00
2023-05-08T11:53:26.289Z,85.10
2023-05-08T11:55:55.029Z,84.80
2023-05-08T11:58:23.198Z,84.50
2023-05-08T12:00:51.519Z,84.60
2023-05-08T12:03:20.968Z,84.40
2023-05-08T12:05:51.313Z,84.50
2023-05-08T12:08:19.835Z,83.70
2023-05-08T12:10:52.543Z,83.90
2023-05-08T12:13:21.511Z,82.80
2023-05-08T12:15:50.824Z,83.30
2023-05-08T12:18:18.944Z,83.20
2023-05-08T12:20:47.897Z,82.60
2023-05-08T12:23:18.608Z,82.80
2023-05-08T12:25:46.995Z,82.10
2023-05-08T12:28:15.728Z,82.20
2023-05-08T12:30:43.662Z,82.20
2023-05-08T12:33:12.806Z,81.90
2023-05-08T12:35:41.547Z,80.80
2023-05-08T12:38:10.661Z,80.70
2023-05-08T12:40:44.406Z,80.10
2023-05-08T12:43:13.154Z,80.20
2023-05-08T12:45:42.412Z,80.70
2023-05-08T12:48:12.582Z,80.30
2023-05-08T12:50:42.398Z,80.20
2023-05-08T12:53:11.730Z,78.80
2023-05-08T12:55:40.956Z,78.90
2023-05-08T12:58:15.165Z,78.50
2023-05-08T13:00:45.523Z,77.50
2023-05-08T13:03:15.497Z,78.10
2023-05-08T13:05:45.207Z,77.20
2023-05-08T13:08:13.322Z,77.80
2023-05-08T13:10:46.222Z,77.10
2023-05-08T13:13:16.874Z,76.50
2023-05-08T13:15:44.737Z,76.80
2023-05-08T13:18:12.915Z,76.50
2023-05-08T13:20:41.506Z,76.30
2023-05-08T13:23:10.376Z,76.10
2023-05-08T13:25:38.935Z,75.90
2023-05-08T13:28:08.214Z,75.90
2023-05-08T13:30:38.109Z,75.60
2023-05-08T13:33:06.454Z,75.30
2023-05-08T13:35:34.985Z,75.30
2023-05-08T13:38:03.063Z,75.60
2023-05-08T13:40:31.295Z,75.40
2023-05-08T13:42:59.138Z,75.60
2023-05-08T13:45:27.125Z,74.90
2023-05-08T13:47:56.289Z,73.90
2023-05-08T13:50:24.127Z,73.50
2023-05-08T13:52:54.677Z,73.60
2023-05-08T13:55:23.428Z,73.90
2023-05-08T13:57:51.681Z,74.00
2023-05-08T14:00:20.313Z,73.50
2023-05-08T14:02:50.688Z,73.40
2023-05-08T14:05:20.923Z,72.80
2023-05-08T14:07:48.749Z,73.40
2023-05-08T14:10:17.368Z,73.20
2023-05-08T14:12:46.653Z,72.70
2023-05-08T14:15:14.962Z,73.00
2023-05-08T14:17:43.283Z,72.50
2023-05-08T14:20:12.385Z,72.90
2023-05-08T14:22:41.661Z,72.90
2023-05-08T14:25:11.053Z,72.60
2023-05-08T14:27:39.148Z,73.00
2023-05-08T14:30:08.976Z,73.20
2023-05-08T14:32:36.850Z,73.00
2023-05-08T14:35:05.758Z,73.30
2023-05-08T14:37:33.813Z,73.20
2023-05-08T14:40:08.657Z,73.80
2023-05-08T14:42:36.535Z,73.40
2023-05-08T14:45:04.899Z,73.30
2023-05-08T14:47:33.768Z,73.50
2023-05-08T14:50:01.584Z,73.10
2023-05-08T14:52:29.461Z,73.20
2023-05-08T14:54:58.693Z,72.70
2023-05-08T14:57:28.140Z,72.90
2023-05-08T14:59:56.720Z,72.10
2023-05-08T15:02:24.656Z,72.70
2023-05-08T15:04:52.566Z,72.20
2023-05-08T15:07:20.423Z,72.30
2023-05-08T15:09:48.637Z,72.40
2023-05-08T15:12:16.671Z,72.40
2023-05-08T15:14:45.870Z,71.90
2023-05-08T15:17:13.794Z,71.00
2023-05-08T15:19:42.356Z,71.10
2023-05-08T15:22:10.294Z,71.00
2023-05-08T15:24:38.107Z,71.20
2023-05-08T15:27:06.302Z,71.30
2023-05-08T15:29:34.195Z,71.40
2023-05-08T15:32:03.411Z,71.50
2023-05-08T15:34:32.882Z,71.40
2023-05-08T15:37:06.032Z,71.40
2023-05-08T15:39:36.652Z,71.50
2023-05-08T15:42:05.244Z,71.00
2023-05-08T15:44:53.358Z,71.30
2023-05-08T15:47:23.031Z,71.10
2023-05-08T15:49:51.293Z,71.30
2023-05-08T15:52:19.790Z,71.10
2023-05-08T15:54:48.654Z,71.30
2023-05-08T15:57:17.310Z,71.40
2023-05-08T15:59:45.484Z,71.50
2023-05-08T16:02:13.494Z,71.30
2023-05-08T16:04:42.686Z,71.20
2023-05-08T16:07:10.549Z,71.10
2023-05-08T16:09:38.347Z,71.30
2023-05-08T16:12:06.894Z,71.30
2023-05-08T16:14:36.152Z,71.40
2023-05-08T16:17:04.018Z,71.50
2023-05-08T16:19:31.932Z,71.70
2023-05-08T16:22:01.058Z,71.80
2023-05-08T16:24:28.968Z,71.70
2023-05-08T16:26:56.962Z,72.40
2023-05-08T16:29:24.760Z,72.90
2023-05-08T16:31:53.012Z,72.60
2023-05-08T16:34:21.344Z,72.80
2023-05-08T16:36:49.479Z,72.90
2023-05-08T16:39:18.724Z,72.80
2023-05-08T16:41:46.914Z,72.70
2023-05-08T16:44:15.397Z,73.00
2023-05-08T16:46:43.228Z,73.20
2023-05-08T16:49:11.493Z,73.40
2023-05-08T16:51:39.342Z,73.70
2023-05-08T16:54:07.253Z,73.80
2023-05-08T16:56:36.466Z,74.30
2023-05-08T16:59:06.510Z,74.10
2023-05-08T17:01:34.856Z,73.90
2023-05-08T17:04:02.669Z,74.20
2023-05-08T17:06:30.540Z,74.20
2023-05-08T17:08:58.366Z,74.00
2023-05-08T17:11:26.232Z,74.30
2023-05-08T17:13:55.459Z,73.90
2023-05-08T17:16:23.520Z,73.80
2023-05-08T17:18:51.497Z,73.90
2023-05-08T17:21:19.261Z,74.10
2023-05-08T17:23:47.264Z,74.40
2023-05-08T17:26:15.584Z,74.30
2023-05-08T17:28:43.463Z,74.40
2023-05-08T17:31:14.499Z,74.50
2023-05-08T17:33:42.295Z,74.30
2023-05-08T17:36:10.662Z,74.40
2023-05-08T17:38:43.549Z,74.20
2023-05-08T17:41:11.725Z,73.90
2023-05-08T17:43:39.615Z,73.80
2023-05-08T17:46:07.632Z,73.80
2023-05-08T17:48:37.143Z,73.80
2023-05-08T17:51:05.373Z,73.70
2023-05-08T17:53:33.718Z,73.80
2023-05-08T17:56:01.464Z,74.20
2023-05-08T17:58:29.339Z,74.20
2023-05-08T18:00:57.257Z,74.10
2023-05-08T18:03:25.833Z,74.20
2023-05-08T18:05:55.038Z,74.30
2023-05-08T18:08:22.947Z,74.10
2023-05-08T18:10:51.407Z,74.40
2023-05-08T18:13:19.296Z,74.30
2023-05-08T18:15:47.618Z,74.10
2023-05-08T18:18:15.609Z,74.60
2023-05-08T18:20:43.399Z,74.50
2023-05-08T18:23:12.998Z,74.70
2023-05-08T18:25:40.813Z,74.70
2023-05-08T18:28:08.643Z,74.90
2023-05-08T18:30:40.024Z,74.80
2023-05-08T18:33:08.021Z,75.20
2023-05-08T18:35:36.240Z,75.30
2023-05-08T18:38:04.035Z,75.40
2023-05-08T18:40:33.218Z,75.20
2023-05-08T18:43:01.046Z,75.30
2023-05-08T18:45:29.008Z,75.10
2023-05-08T18:47:57.499Z,75.40
2023-05-08T18:50:25.535Z,75.30
2023-05-08T18:52:53.357Z,75.60
2023-05-08T18:55:21.224Z,75.70
2023-05-08T18:57:50.796Z,75.70
2023-05-08T19:00:19.325Z,76.40
2023-05-08T19:02:47.598Z,76.90
2023-05-08T19:05:15.683Z,76.50
2023-05-08T19:07:43.773Z,76.50
2023-05-08T19:10:12.038Z,76.10
2023-05-08T19:12:40.188Z,76.10
2023-05-08T19:15:13.369Z,76.00
2023-05-08T19:17:41.843Z,76.30
2023-05-08T19:20:10.776Z,76.30
2023-05-08T19:22:38.567Z,76.60
2023-05-08T19:25:07.142Z,76.60
2023-05-08T19:27:35.020Z,76.80
2023-05-08T19:30:02.937Z,76.60
2023-05-08T19:32:32.322Z,76.70
2023-05-08T19:35:02.426Z,76.90
2023-05-08T19:37:30.417Z,77.00
2023-05-08T19:39:58.452Z,77.10
2023-05-08T19:42:26.237Z,77.40
2023-05-08T19:44:54.092Z,77.60
2023-05-08T19:47:21.988Z,77.50
2023-05-08T19:49:51.630Z,77.80
2023-05-08T19:52:19.958Z,77.80
2023-05-08T19:54:47.770Z,77.80
2023-05-08T19:57:15.620Z,77.90
2023-05-08T19:59:43.491Z,77.90
2023-05-08T20:02:11.475Z,78.00
2023-05-08T20:04:54.565Z,79.30
2023-05-08T20:07:28.536Z,79.40
2023-05-08T20:09:56.420Z,79.20
2023-05-08T20:12:24.334Z,79.00
2023-05-08T20:14:53.236Z,79.10
2023-05-08T20:17:21.231Z,79.00
2023-05-08T20:19:49.684Z,79.10
2023-05-08T20:22:17.489Z,78.80
2023-05-08T20:24:46.931Z,79.20
2023-05-08T20:27:14.711Z,79.50
2023-05-08T20:29:42.531Z,79.60
2023-05-08T20:32:14.654Z,79.30
2023-05-08T20:34:44.241Z,79.70
2023-05-08T20:37:12.681Z,79.70
2023-05-08T20:39:40.518Z,79.60
2023-05-08T20:42:09.781Z,79.90
2023-05-08T20:44:37.598Z,80.10
2023-05-08T20:47:05.552Z,80.20
2023-05-08T20:49:33.460Z,80.30
2023-05-08T20:52:01.837Z,80.40
2023-05-08T20:54:30.305Z,80.50
2023-05-08T20:56:58.357Z,80.70
2023-05-08T20:59:27.558Z,80.70
2023-05-08T21:01:55.752Z,80.70
2023-05-08T21:04:23.676Z,81.00
2023-05-08T21:06:52.285Z,81.00
2023-05-08T21:09:20.386Z,81.00
2023-05-08T21:11:48.567Z,81.00
2023-05-08T21:14:16.879Z,81.10
2023-05-08T21:16:46.486Z,81.20
2023-05-08T21:19:17.333Z,81.10
2023-05-08T21:21:45.360Z,81.40
2023-05-08T21:24:13.291Z,81.50
2023-05-08T21:26:41.761Z,81.50
2023-05-08T21:29:10.705Z,81.60
2023-05-08T21:31:38.716Z,81.70
2023-05-08T21:34:07.950Z,81.80
2023-05-08T21:36:35.752Z,82.00
2023-05-08T21:39:03.983Z,81.90
2023-05-08T21:41:32.942Z,81.90
2023-05-08T21:44:00.821Z,82.10
2023-05-08T21:46:28.757Z,82.00
2023-05-08T21:48:56.628Z,82.10
2023-05-08T21:51:25.813Z,82.30
2023-05-08T21:53:53.599Z,82.30
2023-05-08T21:56:22.630Z,82.30
2023-05-08T21:58:50.883Z,82.30
2023-05-08T22:01:18.795Z,82.20
2023-05-08T22:03:47.203Z,82.30
2023-05-08T22:06:15.299Z,82.40
2023-05-08T22:08:44.520Z,82.60
2023-05-08T22:11:15.618Z,83.90
2023-05-08T22:13:43.441Z,84.10
2023-05-08T22:16:11.466Z,83.90
2023-05-08T22:18:39.385Z,83.90
2023-05-08T22:21:07.247Z,83.80
2023-05-08T22:23:35.177Z,83.70
2023-05-08T22:26:04.741Z,83.80
2023-05-08T22:28:32.634Z,83.60
2023-05-08T22:31:00.432Z,83.70
2023-05-08T22:33:32.182Z,83.60
2023-05-08T22:36:00.040Z,83.60
2023-05-08T22:38:27.814Z,83.60
2023-05-08T22:40:57.305Z,83.60
2023-05-08T22:43:26.507Z,83.70
2023-05-08T22:45:54.648Z,83.80
2023-05-08T22:48:22.509Z,83.70
2023-05-08T22:50:50.867Z,83.50
2023-05-08T22:53:18.690Z,81.70
2023-05-08T22:55:46.866Z,83.70
2023-05-08T22:58:14.666Z,84.00
2023-05-08T23:00:44.084Z,83.90
2023-05-08T23:03:12.294Z,84.30
2023-05-08T23:05:40.136Z,84.40
2023-05-08T23:08:07.966Z,84.30
2023-05-08T23:10:35.791Z,84.60
2023-05-08T23:13:03.854Z,84.70
2023-05-08T23:15:31.700Z,85.10
2023-05-08T23:18:00.980Z,85.10
2023-05-08T23:20:28.868Z,85.20
2023-05-08T23:22:56.867Z,85.10
2023-05-08T23:25:24.839Z,85.20
2023-05-08T23:27:52.676Z,85.20
2023-05-08T23:30:20.671Z,85.20
2023-05-08T23:32:50.319Z,85.20
2023-05-08T23:35:19.704Z,85.10
2023-05-08T23:37:47.631Z,85.30
2023-05-08T23:40:17.326Z,85.00
2023-05-08T23:42:45.638Z,85.20
2023-05-08T23:45:13.660Z,85.00
2023-05-08T23:47:41.774Z,85.00
2023-05-08T23:50:10.121Z,85.10
2023-05-08T23:52:39.265Z,86.10
2023-05-08T23:55:08.157Z,85.60
2023-05-08T23:57:36.068Z,85.80
